Lake Colby, New York
Current Conditions -  °F | °C
As of 1:51 PM on Monday 20 Oct 2014 (Local Time) from KSLK Reporting Station
Overcast Overcast  
Wind Chill: 38°   Ceiling: 8000
Heat Index: 43°   Visibility: 10mi
Dew Point: 34°   Wind: 9mph
Humidity: 71%   Direction: 220°SW
Pressure: 29.88"   Gusts: NA
Location:  44.3202°N, 74.2149°W
Report Text: KSLK 201751Z AUTO 22008KT 10SM OVC080 06/01 A2988 RMK AO2 SLP135 T00610011 10067 21011 58013 $
Loading
Personal Weather Stations






























Interactive Weather Map
Tropical Storm Tracking
New forecast layout! Learn more

10-Day Weather Forecast

Advertisements
Track Severe Weather on mobile